Time;durP1;ratioP1;P1;durP2;ratioP2;P2;SDS_P1;SDS_P2;PMS_P1;PMS_P2;Temp;Humidity;BMP_temperature;BMP_pressure;BME280_temperature;BME280_humidity;BME280_pressure;Samples;Min_cycle;Max_cycle;Signal;HPM_P1;HPM_P2
2023/09/10 00:00:28;;;;;;;24.33;21.88;;;;;;;20.92;95.15;101483.44;5057113;28;20028;-68
2023/09/10 00:02:53;;;;;;;23.67;21.27;;;;;;;20.97;94.86;101489.31;5059102;28;20250;-69
2023/09/10 00:05:19;;;;;;;24.55;22.10;;;;;;;20.92;95.08;101488.88;5052260;28;20490;-69
2023/09/10 00:07:45;;;;;;;24.33;21.90;;;;;;;20.89;95.44;101492.69;5060609;28;20056;-70
2023/09/10 00:10:10;;;;;;;25.85;21.67;;;;;;;20.91;95.96;101496.13;5054094;28;20395;-69
2023/09/10 00:12:35;;;;;;;25.67;22.95;;;;;;;20.86;95.64;101495.66;5056833;28;20440;-68
2023/09/10 00:15:04;;;;;;;25.38;22.90;;;;;;;20.83;96.08;101494.06;5054164;28;20029;-70
2023/09/10 00:17:29;;;;;;;24.75;22.35;;;;;;;20.78;96.13;101493.59;5057059;28;20482;-71
2023/09/10 00:19:55;;;;;;;25.23;22.73;;;;;;;20.70;96.36;101487.97;5056210;28;20094;-71
2023/09/10 00:22:20;;;;;;;26.33;23.52;;;;;;;20.53;97.05;101492.06;5058093;28;20322;-71
2023/09/10 00:24:46;;;;;;;26.25;23.75;;;;;;;20.46;97.83;101490.81;5053551;28;20028;-70
2023/09/10 00:27:13;;;;;;;26.75;23.48;;;;;;;20.39;98.74;101490.44;5054801;28;20032;-71
2023/09/10 00:29:39;;;;;;;26.67;23.95;;;;;;;20.35;99.02;101488.97;5052791;28;20184;-71
2023/09/10 00:32:04;;;;;;;27.05;24.45;;;;;;;20.27;99.78;101494.16;5051754;28;20025;-71
2023/09/10 00:34:31;;;;;;;27.13;24.48;;;;;;;20.28;99.67;101489.63;5057877;28;20378;-70
2023/09/10 00:36:56;;;;;;;28.13;25.13;;;;;;;20.24;100.00;101489.03;5058751;28;20432;-70
2023/09/10 00:39:22;;;;;;;28.52;25.75;;;;;;;20.15;100.00;101481.66;5056583;28;20036;-71
2023/09/10 00:41:48;;;;;;;28.63;25.70;;;;;;;20.15;100.00;101487.94;5059676;28;20035;-70
2023/09/10 00:44:14;;;;;;;29.10;26.40;;;;;;;20.09;100.00;101490.25;5053728;28;20487;-70
2023/09/10 00:46:39;;;;;;;29.40;26.60;;;;;;;20.13;100.00;101489.88;5056981;28;20021;-70
2023/09/10 00:49:05;;;;;;;29.67;26.75;;;;;;;20.18;100.00;101483.25;5056497;28;20193;-70
2023/09/10 00:51:31;;;;;;;27.75;25.13;;;;;;;20.22;100.00;101476.59;5059114;28;20063;-69
2023/09/10 00:53:59;;;;;;;29.42;26.77;;;;;;;20.27;100.00;101475.22;5053116;28;20250;-69
2023/09/10 00:56:24;;;;;;;30.13;27.33;;;;;;;20.27;100.00;101480.63;5053580;28;20276;-69
2023/09/10 00:58:51;;;;;;;29.90;26.77;;;;;;;20.28;100.00;101484.22;5058010;28;20075;-69
2023/09/10 01:01:17;;;;;;;30.02;27.00;;;;;;;20.28;100.00;101485.09;5057768;28;21292;-69
2023/09/10 01:03:43;;;;;;;30.45;27.52;;;;;;;20.26;100.00;101484.34;5056558;28;20059;-69
2023/09/10 01:06:09;;;;;;;32.75;29.35;;;;;;;20.18;100.00;101492.19;5056179;28;20303;-69
2023/09/10 01:08:34;;;;;;;30.75;27.85;;;;;;;20.17;100.00;101482.38;5054095;28;20148;-69
2023/09/10 01:11:27;;;;;;;32.83;29.63;;;;;;;20.17;100.00;101486.94;5055573;28;20161;-69
2023/09/10 01:14:11;;;;;;;33.53;30.00;;;;;;;20.18;100.00;101492.19;5051564;28;20032;-70
2023/09/10 01:17:02;;;;;;;33.33;30.25;;;;;;;20.19;100.00;101483.13;5052134;28;20623;-70
2023/09/10 01:19:41;;;;;;;33.75;30.45;;;;;;;20.19;100.00;101490.34;5052290;28;20573;-70
2023/09/10 01:22:26;;;;;;;33.28;30.13;;;;;;;20.17;100.00;101482.38;5055018;28;20028;-69
2023/09/10 01:24:54;;;;;;;35.45;32.05;;;;;;;20.15;100.00;101481.66;5054822;28;20025;-69
2023/09/10 01:27:19;;;;;;;36.88;33.13;;;;;;;20.08;100.00;101486.69;5051025;28;20016;-69
2023/09/10 01:29:45;;;;;;;35.53;32.03;;;;;;;20.09;100.00;101472.19;5056145;28;20512;-70
2023/09/10 01:32:36;;;;;;;35.85;32.42;;;;;;;20.08;100.00;101475.88;5058762;28;20058;-70
2023/09/10 01:35:24;;;;;;;37.45;33.97;;;;;;;20.08;100.00;101481.28;5053070;28;20278;-69
2023/09/10 01:38:09;;;;;;;36.05;32.58;;;;;;;20.07;100.00;101486.81;5057231;28;20506;-70
2023/09/10 01:40:42;;;;;;;36.67;33.17;;;;;;;20.02;100.00;101483.63;5057801;28;20402;-70
2023/09/10 01:43:09;;;;;;;34.95;31.65;;;;;;;19.97;100.00;101486.69;5056784;28;20162;-69
2023/09/10 01:45:35;;;;;;;33.70;30.45;;;;;;;19.90;100.00;101488.19;5056454;28;20393;-67
2023/09/10 01:48:01;;;;;;;31.90;28.83;;;;;;;19.85;100.00;101493.94;5060984;28;20016;-68
2023/09/10 01:50:30;;;;;;;33.95;30.77;;;;;;;19.82;100.00;101493.34;5057213;28;20048;-69
2023/09/10 01:52:58;;;;;;;32.13;29.02;;;;;;;19.76;100.00;101501.91;5061156;28;20107;-70
2023/09/10 01:55:24;;;;;;;32.05;28.83;;;;;;;19.74;100.00;101493.94;5060269;28;20029;-69
2023/09/10 01:57:53;;;;;;;32.20;29.35;;;;;;;19.74;100.00;101491.25;5061631;28;20055;-68
2023/09/10 02:00:18;;;;;;;30.95;28.05;;;;;;;19.68;100.00;101496.25;5061299;28;20102;-70
2023/09/10 02:02:43;;;;;;;30.58;27.67;;;;;;;19.73;100.00;101496.75;5057046;28;20025;-70
2023/09/10 02:05:09;;;;;;;29.30;26.52;;;;;;;19.66;100.00;101504.50;5061907;28;20066;-69
2023/09/10 02:07:34;;;;;;;29.10;26.30;;;;;;;19.64;100.00;101503.72;5060581;28;20021;-70
2023/09/10 02:09:59;;;;;;;29.52;26.88;;;;;;;19.60;100.00;101504.91;5058026;28;20040;-70
2023/09/10 02:12:25;;;;;;;30.95;28.17;;;;;;;19.52;100.00;101508.25;5058536;28;20127;-69
2023/09/10 02:14:50;;;;;;;32.63;29.70;;;;;;;19.50;100.00;101501.22;5058850;28;20543;-72
2023/09/10 02:17:16;;;;;;;32.13;29.00;;;;;;;19.45;100.00;101508.84;5061508;28;20091;-73
2023/09/10 02:19:41;;;;;;;33.40;29.83;;;;;;;19.48;100.00;101504.06;5055146;28;20028;-69
2023/09/10 02:22:07;;;;;;;31.25;28.27;;;;;;;19.48;100.00;101503.19;5058407;28;20346;-73
2023/09/10 02:24:32;;;;;;;30.55;27.55;;;;;;;19.48;100.00;101506.75;5058495;28;20486;-70
2023/09/10 02:26:58;;;;;;;32.60;29.60;;;;;;;19.50;100.00;101506.63;5062901;28;20132;-70
2023/09/10 02:29:23;;;;;;;35.42;32.08;;;;;;;19.51;100.00;101502.94;5059459;28;20029;-70
2023/09/10 02:31:48;;;;;;;38.67;34.83;;;;;;;19.47;100.00;101501.47;5058126;28;20035;-70
2023/09/10 02:34:14;;;;;;;41.00;36.92;;;;;;;19.42;100.00;101501.81;5062319;28;20532;-70
2023/09/10 02:36:39;;;;;;;41.65;37.65;;;;;;;19.45;100.00;101500.75;5061783;28;20028;-70
2023/09/10 02:39:05;;;;;;;43.15;39.15;;;;;;;19.50;100.00;101502.09;5059013;28;20247;-70
2023/09/10 02:41:30;;;;;;;44.75;40.50;;;;;;;19.45;100.00;101495.34;5058734;28;20031;-70
2023/09/10 02:43:55;;;;;;;43.20;39.13;;;;;;;19.48;100.00;101504.06;5059314;28;20509;-70
2023/09/10 02:46:21;;;;;;;43.33;39.33;;;;;;;19.44;100.00;101497.19;5058932;28;20566;-68
2023/09/10 02:48:46;;;;;;;44.28;39.88;;;;;;;19.48;100.00;101500.47;5056091;28;20083;-68
2023/09/10 02:51:11;;;;;;;43.30;38.97;;;;;;;19.42;100.00;101499.97;5053002;28;20429;-69
2023/09/10 02:53:37;;;;;;;41.15;37.17;;;;;;;19.39;100.00;101499.34;5061559;28;20028;-69
2023/09/10 02:56:05;;;;;;;37.58;34.08;;;;;;;19.42;100.00;101504.53;5058961;28;20058;-70
2023/09/10 02:58:30;;;;;;;41.63;37.78;;;;;;;19.36;100.00;101497.78;5053320;28;20120;-69
2023/09/10 03:01:03;;;;;;;44.80;40.53;;;;;;;19.32;100.00;101501.69;5056311;28;20462;-69
2023/09/10 03:03:28;;;;;;;44.47;40.38;;;;;;;19.37;100.00;101509.44;5055967;28;20290;-70
2023/09/10 03:05:54;;;;;;;47.40;42.83;;;;;;;19.33;100.00;101503.41;5058693;28;20245;-69
2023/09/10 03:08:19;;;;;;;46.75;42.15;;;;;;;19.34;100.00;101502.41;5053787;28;20083;-69
2023/09/10 03:10:44;;;;;;;46.22;41.85;;;;;;;19.33;100.00;101499.84;5061813;28;20032;-69
2023/09/10 03:13:10;;;;;;;49.42;44.90;;;;;;;19.24;100.00;101506.81;5059833;28;20344;-70
2023/09/10 03:15:35;;;;;;;49.67;45.10;;;;;;;19.30;100.00;101513.56;5059399;28;20604;-70
2023/09/10 03:18:00;;;;;;;49.63;44.83;;;;;;;19.28;100.00;101508.31;5061818;28;20032;-70
2023/09/10 03:20:26;;;;;;;49.28;44.58;;;;;;;19.31;100.00;101509.88;5061147;28;20109;-68
2023/09/10 03:22:57;;;;;;;49.35;44.63;;;;;;;19.26;100.00;101504.84;5055794;28;20024;-69
2023/09/10 03:25:23;;;;;;;49.05;44.33;;;;;;;19.28;100.00;101502.03;5061318;28;20032;-69
2023/09/10 03:27:48;;;;;;;49.10;44.50;;;;;;;19.27;100.00;101500.31;5056367;28;20063;-69
2023/09/10 03:30:14;;;;;;;49.40;44.63;;;;;;;19.22;100.00;101497.97;5054815;28;20025;-69
2023/09/10 03:32:39;;;;;;;48.95;44.20;;;;;;;19.19;100.00;101492.81;5056590;28;20299;-69
2023/09/10 03:35:05;;;;;;;50.00;45.15;;;;;;;19.19;100.00;101490.13;5061234;28;20267;-69
2023/09/10 03:37:30;;;;;;;49.75;44.97;;;;;;;19.15;100.00;101492.19;5055459;28;20414;-68
2023/09/10 03:39:55;;;;;;;50.10;45.20;;;;;;;19.15;100.00;101492.19;5059215;28;20029;-69
2023/09/10 03:42:21;;;;;;;50.72;45.80;;;;;;;19.14;100.00;101493.19;5058668;28;20040;-68
2023/09/10 03:44:46;;;;;;;51.97;47.00;;;;;;;19.13;100.00;101495.97;5061238;28;20464;-70
2023/09/10 03:47:11;;;;;;;51.28;46.53;;;;;;;19.18;100.00;101496.47;5057080;28;20028;-69
2023/09/10 03:49:37;;;;;;;53.03;47.67;;;;;;;19.16;100.00;101501.16;5058005;28;20076;-70
2023/09/10 03:52:14;;;;;;;49.70;44.92;;;;;;;19.17;100.00;101500.16;5057736;28;20024;-68
2023/09/10 03:54:39;;;;;;;49.70;45.00;;;;;;;19.10;100.00;101497.09;5059691;28;20232;-69
2023/09/10 03:57:06;;;;;;;49.42;44.72;;;;;;;19.11;100.00;101493.41;5055630;28;20024;-69
2023/09/10 03:59:31;;;;;;;47.00;42.25;;;;;;;19.08;100.00;101496.31;5060474;28;20016;-69
2023/09/10 04:01:59;;;;;;;45.53;41.05;;;;;;;19.06;100.00;101492.91;5057250;28;20036;-69
2023/09/10 04:04:24;;;;;;;49.17;44.47;;;;;;;18.92;100.00;101485.84;5058971;28;20024;-70
2023/09/10 04:06:49;;;;;;;49.25;44.45;;;;;;;19.00;100.00;101481.72;5054062;28;20040;-70
2023/09/10 04:09:15;;;;;;;50.63;45.72;;;;;;;18.98;100.00;101480.94;5057253;28;20526;-70
2023/09/10 04:11:40;;;;;;;50.40;45.55;;;;;;;18.96;100.00;101482.91;5059084;28;20082;-70
2023/09/10 04:14:05;;;;;;;52.10;46.95;;;;;;;18.98;100.00;101480.94;5057480;28;20021;-70
2023/09/10 04:16:31;;;;;;;54.15;49.00;;;;;;;18.94;100.00;101490.28;5059061;28;20099;-70
2023/09/10 04:18:56;;;;;;;54.65;49.25;;;;;;;18.89;100.00;101483.41;5053119;28;20090;-70
2023/09/10 04:21:21;;;;;;;54.53;49.30;;;;;;;18.94;100.00;101480.34;5051423;28;20253;-71
2023/09/10 04:23:47;;;;;;;54.53;49.35;;;;;;;18.95;100.00;101478.50;5050705;28;20028;-71
2023/09/10 04:26:13;;;;;;;53.53;47.88;;;;;;;18.90;100.00;101487.81;5054093;28;20036;-70
2023/09/10 04:28:39;;;;;;;52.45;47.33;;;;;;;18.94;100.00;101477.66;5052407;28;20040;-70
2023/09/10 04:31:04;;;;;;;55.08;49.67;;;;;;;18.88;100.00;101478.09;5053212;28;20143;-70
2023/09/10 04:33:29;;;;;;;54.88;49.33;;;;;;;18.90;100.00;101476.16;5054927;28;20492;-68
2023/09/10 04:35:57;;;;;;;54.10;48.95;;;;;;;18.87;100.00;101479.09;5055615;28;20060;-71
2023/09/10 04:38:22;;;;;;;53.30;48.08;;;;;;;18.87;100.00;101479.09;5049937;28;20491;-69
2023/09/10 04:40:48;;;;;;;52.30;47.08;;;;;;;18.92;100.00;101480.44;5051478;28;20070;-69
2023/09/10 04:43:13;;;;;;;52.38;47.10;;;;;;;18.91;100.00;101485.97;5054072;28;20035;-69
2023/09/10 04:45:38;;;;;;;54.15;48.63;;;;;;;18.90;100.00;101479.72;5051760;28;21459;-68
2023/09/10 04:48:04;;;;;;;55.00;49.53;;;;;;;18.87;100.00;101484.47;5052673;28;20027;-69
2023/09/10 04:50:30;;;;;;;53.88;48.53;;;;;;;18.80;100.00;101481.38;5051358;28;20136;-69
2023/09/10 04:52:55;;;;;;;54.88;49.55;;;;;;;18.82;100.00;101484.81;5055446;28;20237;-69
2023/09/10 04:55:21;;;;;;;55.83;50.35;;;;;;;18.75;100.00;101477.31;5046915;28;20032;-69
2023/09/10 04:57:48;;;;;;;53.55;48.30;;;;;;;18.78;100.00;101488.72;5059213;28;20107;-69
2023/09/10 05:00:13;;;;;;;54.10;48.72;;;;;;;18.78;100.00;101486.03;5055035;28;20491;-69
2023/09/10 05:02:39;;;;;;;55.25;49.83;;;;;;;18.81;100.00;101487.63;5053613;28;20082;-69
2023/09/10 05:05:05;;;;;;;55.58;50.10;;;;;;;18.75;100.00;101488.94;5058017;28;20016;-69
2023/09/10 05:07:30;;;;;;;55.92;50.33;;;;;;;18.76;100.00;101487.97;5060415;28;20016;-69
2023/09/10 05:09:55;;;;;;;57.13;51.42;;;;;;;18.75;100.00;101494.34;5058262;28;20429;-70
2023/09/10 05:12:21;;;;;;;53.80;48.65;;;;;;;18.76;100.00;101493.34;5057538;28;20047;-69
2023/09/10 05:14:46;;;;;;;55.47;50.08;;;;;;;18.75;100.00;101497.03;5053348;28;20024;-68
2023/09/10 05:17:12;;;;;;;55.08;49.65;;;;;;;18.76;100.00;101501.44;5052023;28;20037;-70
2023/09/10 05:19:38;;;;;;;56.63;51.00;;;;;;;18.77;100.00;101499.63;5057116;28;20118;-69
2023/09/10 05:22:03;;;;;;;57.15;51.55;;;;;;;18.79;100.00;101503.06;5061093;28;20245;-69
2023/09/10 05:24:29;;;;;;;56.28;50.65;;;;;;;18.74;100.00;101486.38;5056506;28;20094;-69
2023/09/10 05:26:55;;;;;;;53.80;48.58;;;;;;;18.82;100.00;101505.53;5054667;28;20039;-69
2023/09/10 05:29:20;;;;;;;54.15;48.78;;;;;;;18.83;100.00;101501.88;5054120;28;20563;-69
2023/09/10 05:31:45;;;;;;;54.97;49.65;;;;;;;18.85;100.00;101500.78;5050670;28;20306;-69
2023/09/10 05:34:11;;;;;;;54.88;49.38;;;;;;;18.86;100.00;101505.19;5057885;28;20048;-68
2023/09/10 05:36:36;;;;;;;53.78;48.40;;;;;;;18.87;100.00;101500.66;5056181;28;20048;-69
2023/09/10 05:39:02;;;;;;;52.63;47.45;;;;;;;18.92;100.00;101502.03;5058713;28;20109;-70
2023/09/10 05:41:27;;;;;;;53.75;48.45;;;;;;;18.93;100.00;101502.88;5059507;28;20117;-69
2023/09/10 05:43:53;;;;;;;53.60;48.42;;;;;;;18.93;100.00;101500.19;5058089;28;20029;-69
2023/09/10 05:46:18;;;;;;;54.33;49.03;;;;;;;19.01;100.00;101499.59;5057484;28;20102;-68
2023/09/10 05:48:44;;;;;;;52.45;47.65;;;;;;;19.02;100.00;101504.00;5057261;28;20055;-69
2023/09/10 05:51:09;;;;;;;52.22;47.33;;;;;;;19.04;100.00;101502.06;5051920;28;20016;-68
2023/09/10 05:53:34;;;;;;;51.72;46.72;;;;;;;19.07;100.00;101501.84;5054244;28;20045;-69
2023/09/10 05:56:05;;;;;;;52.63;47.45;;;;;;;19.14;100.00;101506.66;5050687;28;20029;-68
2023/09/10 05:58:31;;;;;;;52.03;47.10;;;;;;;19.19;100.00;101506.31;5055779;28;20111;-68
2023/09/10 06:00:57;;;;;;;52.17;46.95;;;;;;;19.24;100.00;101509.50;5053743;28;20030;-69
2023/09/10 06:03:22;;;;;;;49.72;44.92;;;;;;;19.34;100.00;101517.75;5054178;28;20291;-69
2023/09/10 06:05:48;;;;;;;50.13;45.10;;;;;;;19.38;100.00;101511.13;5059306;28;20519;-69
2023/09/10 06:08:14;;;;;;;48.95;44.25;;;;;;;19.49;100.00;101518.41;5054549;28;20187;-70
2023/09/10 06:10:39;;;;;;;47.70;43.10;;;;;;;19.65;100.00;101514.44;5058409;28;20020;-70
2023/09/10 06:13:05;;;;;;;48.63;43.90;;;;;;;19.77;100.00;101518.00;5057117;28;20102;-70
2023/09/10 06:15:30;;;;;;;48.83;44.00;;;;;;;19.89;100.00;101517.00;5057962;28;20338;-69
2023/09/10 06:17:55;;;;;;;45.85;41.50;;;;;;;20.08;100.00;101523.66;5049972;28;20056;-68
2023/09/10 06:20:21;;;;;;;47.10;42.55;;;;;;;20.26;100.00;101515.91;5056517;28;20032;-69
2023/09/10 06:22:46;;;;;;;44.83;40.53;;;;;;;20.49;100.00;101531.16;5055422;28;20059;-70
2023/09/10 06:25:12;;;;;;;45.90;41.13;;;;;;;20.57;100.00;101520.56;5059749;28;20039;-70
2023/09/10 06:27:37;;;;;;;42.85;38.78;;;;;;;20.78;100.00;101526.06;5055943;28;20021;-70
2023/09/10 06:30:06;;;;;;;43.53;39.15;;;;;;;20.97;100.00;101522.66;5063684;28;20072;-70
2023/09/10 06:32:31;;;;;;;42.15;38.03;;;;;;;21.01;100.00;101525.97;5060525;28;20111;-71
2023/09/10 06:34:56;;;;;;;42.33;38.30;;;;;;;21.17;99.52;101528.25;5063311;28;20112;-70
2023/09/10 06:37:22;;;;;;;42.63;38.30;;;;;;;21.44;98.06;101534.03;5063888;28;20035;-70
2023/09/10 06:39:47;;;;;;;41.47;37.40;;;;;;;21.59;97.85;101534.56;5063936;28;20097;-70
2023/09/10 06:42:13;;;;;;;41.47;37.35;;;;;;;21.74;96.46;101532.41;5058222;28;20021;-70
2023/09/10 06:44:42;;;;;;;39.65;36.03;;;;;;;21.81;95.77;101533.56;5054625;28;20452;-70
2023/09/10 06:47:08;;;;;;;40.05;36.00;;;;;;;22.00;94.14;101533.66;5055020;28;20270;-70
2023/09/10 06:49:34;;;;;;;39.97;36.28;;;;;;;22.11;93.25;101538.13;5060456;28;20456;-70
2023/09/10 06:51:59;;;;;;;39.67;35.88;;;;;;;22.23;93.42;101533.50;5061397;28;20067;-68
2023/09/10 06:54:24;;;;;;;39.22;35.78;;;;;;;22.36;93.39;101540.41;5059478;28;20053;-70
2023/09/10 06:56:50;;;;;;;38.88;35.22;;;;;;;22.63;91.48;101549.75;5059826;28;20445;-70
2023/09/10 06:59:16;;;;;;;38.95;35.20;;;;;;;22.89;89.30;101539.22;5057551;28;20124;-69
2023/09/10 07:01:42;;;;;;;35.70;32.38;;;;;;;23.05;88.71;101541.44;5058415;28;20082;-69
2023/09/10 07:04:20;;;;;;;35.83;32.47;;;;;;;23.34;87.82;101544.16;5057203;28;20041;-69
2023/09/10 07:06:47;;;;;;;36.83;33.08;;;;;;;23.50;87.67;101544.41;5059530;28;20435;-70
2023/09/10 07:09:13;;;;;;;34.90;31.60;;;;;;;23.82;85.36;101552.22;5062204;28;20034;-69
2023/09/10 07:11:38;;;;;;;35.10;31.63;;;;;;;23.99;83.54;101547.03;5061320;28;20037;-71
2023/09/10 07:14:06;;;;;;;34.25;30.73;;;;;;;24.22;82.42;101555.69;5060450;28;20028;-71
2023/09/10 07:16:36;;;;;;;34.70;31.15;;;;;;;24.48;81.48;101547.72;5058759;28;20028;-70
2023/09/10 07:19:01;;;;;;;32.28;29.08;;;;;;;24.80;79.63;101550.81;5056135;28;20088;-71
2023/09/10 07:21:27;;;;;;;33.17;30.05;;;;;;;24.97;78.54;101542.81;5059703;28;20552;-71
2023/09/10 07:23:53;;;;;;;33.72;30.48;;;;;;;25.17;76.61;101538.97;5060444;28;20036;-70
2023/09/10 07:26:18;;;;;;;30.73;27.85;;;;;;;25.45;76.19;101547.03;5061018;28;20020;-70
2023/09/10 07:28:44;;;;;;;29.30;26.60;;;;;;;25.79;74.99;101550.75;5058434;28;20024;-70
2023/09/10 07:31:09;;;;;;;30.67;27.73;;;;;;;25.98;73.89;101549.66;5057049;28;20024;-71
2023/09/10 07:33:35;;;;;;;28.98;26.23;;;;;;;26.29;72.40;101554.56;5061741;28;20150;-71
2023/09/10 07:36:00;;;;;;;28.95;26.25;;;;;;;26.50;72.06;101555.06;5059340;28;20024;-71
2023/09/10 07:38:26;;;;;;;27.48;24.95;;;;;;;26.76;72.30;101554.97;5062285;28;20081;-72
2023/09/10 07:40:51;;;;;;;26.27;23.77;;;;;;;26.98;71.00;101550.75;5055599;28;20028;-71
2023/09/10 07:43:16;;;;;;;26.10;23.50;;;;;;;27.37;69.84;101543.78;5057015;28;20111;-71
2023/09/10 07:45:44;;;;;;;23.75;21.45;;;;;;;27.78;68.89;101548.22;5059565;28;20286;-71
2023/09/10 07:48:11;;;;;;;22.45;20.23;;;;;;;28.16;67.88;101553.09;5057682;28;20051;-70
2023/09/10 07:50:37;;;;;;;22.30;19.20;;;;;;;28.56;65.82;101545.78;5055497;28;20021;-71
2023/09/10 07:53:02;;;;;;;21.88;19.77;;;;;;;28.54;65.23;101551.44;5065277;28;20571;-70
2023/09/10 07:55:28;;;;;;;19.77;17.90;;;;;;;29.10;62.69;101548.56;5058440;28;20039;-70
2023/09/10 07:57:53;;;;;;;19.92;18.02;;;;;;;29.30;60.61;101552.50;5057130;28;20028;-70
2023/09/10 08:00:20;;;;;;;18.38;16.27;;;;;;;29.53;59.21;101558.81;5063053;28;20084;-71
2023/09/10 08:02:46;;;;;;;18.58;16.65;;;;;;;29.78;59.05;101556.72;5065538;28;20502;-71
2023/09/10 08:05:11;;;;;;;21.17;16.42;;;;;;;30.06;59.55;101561.59;5055152;28;20101;-71
2023/09/10 08:07:37;;;;;;;18.52;16.10;;;;;;;30.44;58.95;101569.75;5058076;28;20020;-69
2023/09/10 08:10:02;;;;;;;15.75;14.20;;;;;;;30.88;56.59;101569.69;5056157;28;20028;-71
2023/09/10 08:12:28;;;;;;;16.13;14.10;;;;;;;31.03;55.42;101571.53;5055909;28;20032;-71
2023/09/10 08:14:53;;;;;;;15.80;13.13;;;;;;;31.41;56.39;101564.75;5060145;28;20254;-70
2023/09/10 08:17:19;;;;;;;15.63;14.10;;;;;;;31.78;54.31;101573.75;5059566;28;20024;-71
2023/09/10 08:19:45;;;;;;;14.15;12.63;;;;;;;32.09;53.85;101578.84;5060744;28;20043;-71
2023/09/10 08:22:10;;;;;;;15.05;13.43;;;;;;;32.54;50.20;101570.22;5050480;28;20568;-70
2023/09/10 08:24:35;;;;;;;14.57;12.95;;;;;;;32.82;49.99;101570.13;5052649;28;20032;-69
2023/09/10 08:27:05;;;;;;;13.60;11.98;;;;;;;33.10;50.40;101561.72;5058465;28;20068;-70
2023/09/10 08:29:31;;;;;;;15.13;12.82;;;;;;;33.39;48.50;101563.25;5059597;28;20021;-71
2023/09/10 08:31:58;;;;;;;12.68;11.43;;;;;;;33.76;46.59;101559.03;5056048;28;20033;-69
2023/09/10 08:34:24;;;;;;;11.88;10.57;;;;;;;33.79;45.84;101555.84;5056444;28;20423;-69
2023/09/10 08:36:49;;;;;;;15.77;10.35;;;;;;;34.07;45.89;101561.16;5058429;28;20051;-69
2023/09/10 08:39:15;;;;;;;13.07;9.57;;;;;;;34.37;44.50;101555.94;5055894;28;20062;-71
2023/09/10 08:42:12;;;;;;;13.00;9.25;;;;;;;34.91;45.46;101564.88;5055499;28;20032;-70
2023/09/10 08:44:43;;;;;;;11.77;9.32;;;;;;;35.13;42.85;101554.31;5058310;28;20073;-69
2023/09/10 08:47:13;;;;;;;11.82;10.60;;;;;;;35.19;41.74;101564.47;5055686;28;20041;-70
2023/09/10 08:49:42;;;;;;;10.90;9.63;;;;;;;35.53;39.75;101565.09;5060553;28;20048;-70
2023/09/10 08:52:08;;;;;;;11.98;8.70;;;;;;;35.81;39.72;101568.25;5060929;28;20032;-70
2023/09/10 08:54:36;;;;;;;11.13;8.73;;;;;;;36.10;39.36;101569.47;5058497;28;20031;-71
2023/09/10 08:57:03;;;;;;;11.32;8.65;;;;;;;36.41;39.78;101565.72;5057547;28;20028;-70
2023/09/10 08:59:30;;;;;;;9.18;7.68;;;;;;;36.94;38.94;101571.69;5056071;28;20466;-72
2023/09/10 09:01:56;;;;;;;8.43;7.40;;;;;;;37.25;39.62;101570.56;5056764;28;20058;-72
2023/09/10 09:04:23;;;;;;;12.18;7.78;;;;;;;37.44;37.63;101571.34;5055944;28;20032;-71
2023/09/10 09:06:53;;;;;;;9.02;6.93;;;;;;;37.63;36.99;101575.75;5054290;28;20033;-71
2023/09/10 09:09:20;;;;;;;8.32;6.93;;;;;;;37.86;36.40;101564.66;5056410;28;20020;-71
2023/09/10 09:11:47;;;;;;;9.27;7.15;;;;;;;38.29;36.56;101563.41;5057514;28;20035;-70
2023/09/10 09:14:13;;;;;;;8.50;6.70;;;;;;;38.67;34.70;101563.91;5054489;28;20063;-71
2023/09/10 09:16:40;;;;;;;9.23;6.80;;;;;;;38.88;35.36;101559.59;5052564;28;20036;-71
2023/09/10 09:19:13;;;;;;;12.55;7.00;;;;;;;38.92;33.25;101556.09;5059607;28;20035;-71
2023/09/10 09:21:41;;;;;;;9.30;6.57;;;;;;;39.15;32.36;101554.25;5055272;28;20035;-71
2023/09/10 09:24:08;;;;;;;10.88;6.70;;;;;;;38.86;33.17;101563.50;5053533;28;20025;-70
2023/09/10 09:26:36;;;;;;;8.38;7.05;;;;;;;39.17;33.73;101561.28;5054742;28;20041;-70
2023/09/10 09:29:01;;;;;;;9.18;6.38;;;;;;;39.49;32.45;101561.56;5053387;28;20109;-70
2023/09/10 09:31:26;;;;;;;8.70;6.95;;;;;;;40.07;30.91;101563.03;5058810;28;20109;-69
2023/09/10 09:33:53;;;;;;;10.73;7.40;;;;;;;40.23;31.12;101564.13;5061000;28;20021;-69
2023/09/10 09:36:18;;;;;;;10.23;6.97;;;;;;;40.29;30.32;101567.81;5055667;28;20477;-69
2023/09/10 09:38:46;;;;;;;8.60;5.88;;;;;;;40.38;30.63;101559.81;5058831;28;20029;-70
2023/09/10 09:41:14;;;;;;;9.10;5.70;;;;;;;40.42;30.51;101564.63;5053617;28;20024;-70
2023/09/10 09:43:39;;;;;;;8.90;7.32;;;;;;;40.97;30.22;101554.41;5056279;28;20237;-70
2023/09/10 09:46:05;;;;;;;10.77;6.88;;;;;;;41.19;29.57;101555.19;5050515;28;20340;-70
2023/09/10 09:48:32;;;;;;;7.82;6.60;;;;;;;41.60;29.12;101546.31;5053870;28;20040;-69
2023/09/10 09:50:58;;;;;;;9.20;6.47;;;;;;;41.80;28.03;101546.44;5054673;28;20481;-70
2023/09/10 09:53:26;;;;;;;9.73;6.55;;;;;;;41.76;28.66;101554.56;5049126;28;20707;-70
2023/09/10 09:55:59;;;;;;;9.05;6.03;;;;;;;41.85;28.64;101540.94;5055031;28;20027;-70
2023/09/10 09:58:24;;;;;;;7.30;6.10;;;;;;;42.69;27.66;101544.69;5053592;28;20040;-71
2023/09/10 10:00:50;;;;;;;18.02;7.03;;;;;;;42.92;27.43;101534.91;5053160;28;20530;-72
2023/09/10 10:03:19;;;;;;;13.18;5.78;;;;;;;43.20;26.80;101544.78;5055266;28;20036;-71
2023/09/10 10:05:52;;;;;;;9.60;5.95;;;;;;;43.35;27.17;101547.56;5061604;28;20567;-72
2023/09/10 10:08:18;;;;;;;8.15;5.40;;;;;;;43.46;25.98;101529.66;5059700;28;20024;-72
2023/09/10 10:10:50;;;;;;;8.43;5.05;;;;;;;43.75;26.49;101538.28;5065363;28;20028;-72
2023/09/10 10:13:21;;;;;;;7.50;5.00;;;;;;;43.72;26.47;101538.84;5064094;28;20505;-71
2023/09/10 10:15:48;;;;;;;8.35;5.60;;;;;;;43.55;24.92;101535.53;5056347;28;20098;-71
2023/09/10 10:18:19;;;;;;;10.43;5.57;;;;;;;43.99;25.29;101541.34;5062301;28;20680;-72
2023/09/10 10:20:47;;;;;;;7.88;5.20;;;;;;;44.06;24.57;101538.22;5059313;28;20024;-71
2023/09/10 10:23:16;;;;;;;7.47;5.65;;;;;;;44.14;24.87;101534.81;5062854;28;20020;-72
2023/09/10 10:25:42;;;;;;;7.13;5.60;;;;;;;44.69;24.63;101540.47;5062732;28;20024;-71
2023/09/10 10:28:09;;;;;;;10.30;5.55;;;;;;;45.07;24.43;101530.44;5060438;28;20025;-71
2023/09/10 10:30:50;;;;;;;10.68;5.63;;;;;;;45.55;24.45;101533.38;5058905;28;20517;-72
2023/09/10 10:33:18;;;;;;;8.23;5.15;;;;;;;45.35;23.48;101539.16;5062625;28;20086;-72
2023/09/10 10:35:58;;;;;;;6.35;5.28;;;;;;;45.82;23.75;101527.22;5062822;28;20020;-72
2023/09/10 10:38:32;;;;;;;7.63;5.18;;;;;;;45.79;24.41;101530.59;5061302;28;20029;-71
2023/09/10 10:41:01;;;;;;;5.72;5.05;;;;;;;46.38;22.58;101534.97;5058268;28;20016;-75
2023/09/10 10:43:30;;;;;;;8.10;5.00;;;;;;;46.41;22.81;101540.00;5063741;28;20040;-72
2023/09/10 10:46:02;;;;;;;8.50;5.40;;;;;;;46.34;22.42;101531.06;5057158;28;20028;-74
2023/09/10 10:48:31;;;;;;;8.95;5.03;;;;;;;45.89;22.27;101527.69;5061776;28;20044;-72
2023/09/10 10:50:58;;;;;;;5.90;4.90;;;;;;;45.82;22.56;101513.16;5057646;28;20036;-72
2023/09/10 10:53:24;;;;;;;5.85;5.10;;;;;;;46.34;23.29;101519.81;5063800;28;20028;-72
2023/09/10 10:55:52;;;;;;;6.63;4.90;;;;;;;46.55;22.42;101516.72;5063134;28;20036;-72
2023/09/10 10:58:20;;;;;;;8.10;5.07;;;;;;;46.53;21.85;101517.03;5063462;28;20496;-71
2023/09/10 11:00:53;;;;;;;8.15;5.18;;;;;;;46.83;22.22;101515.75;5063588;28;20269;-75
2023/09/10 11:03:20;;;;;;;9.45;5.10;;;;;;;47.01;21.12;101504.78;5063482;28;20024;-71
2023/09/10 11:06:04;;;;;;;6.88;5.00;;;;;;;47.05;21.45;101508.66;5064510;28;20032;-72